Time;durP1;ratioP1;P1;durP2;ratioP2;P2;SDS_P1;SDS_P2;PMS_P1;PMS_P2;Temp;Humidity;BMP_temperature;BMP_pressure;BME280_temperature;BME280_humidity;BME280_pressure;Samples;Min_cycle;Max_cycle;Signal;HPM_P1;HPM_P2
2022/06/10 00:01:00;;;;;;;0.35;0.35;;;14.30;99.90;;;;;;4895870;29;20059;-70
2022/06/10 00:03:27;;;;;;;0.20;0.20;;;14.30;99.90;;;;;;4910354;29;20052;-70
2022/06/10 00:05:56;;;;;;;0.10;0.10;;;14.20;99.90;;;;;;4914428;29;20072;-70
2022/06/10 00:08:24;;;;;;;0.10;0.10;;;14.20;99.90;;;;;;4914480;29;20424;-70
2022/06/10 00:10:51;;;;;;;0.10;0.10;;;14.20;99.90;;;;;;4914022;29;20048;-70
2022/06/10 00:13:23;;;;;;;0.10;0.10;;;14.00;99.90;;;;;;4911660;29;20044;-70
2022/06/10 00:15:49;;;;;;;0.00;0.00;;;14.00;99.90;;;;;;4897583;29;20053;-70
2022/06/10 00:18:16;;;;;;;0.00;0.00;;;14.10;99.90;;;;;;4896550;29;20056;-70
2022/06/10 00:20:42;;;;;;;0.30;0.30;;;14.20;99.90;;;;;;4894971;29;20481;-70
2022/06/10 00:23:08;;;;;;;0.20;0.20;;;14.10;99.90;;;;;;4899626;29;20036;-70
2022/06/10 00:25:34;;;;;;;1.30;1.20;;;14.10;99.90;;;;;;4915045;29;20099;-70
2022/06/10 00:28:00;;;;;;;0.10;0.10;;;14.00;99.90;;;;;;4914508;29;20055;-70
2022/06/10 00:30:29;;;;;;;0.75;0.55;;;14.00;99.90;;;;;;4899917;29;20401;-70
2022/06/10 00:32:55;;;;;;;0.30;0.20;;;14.00;99.90;;;;;;4896496;29;20075;-70
2022/06/10 00:35:21;;;;;;;0.30;0.30;;;14.10;99.90;;;;;;4895313;29;20064;-70
2022/06/10 00:37:46;;;;;;;1.17;0.60;;;14.00;99.90;;;;;;4895105;29;20068;-70
2022/06/10 00:40:16;;;;;;;0.10;0.10;;;14.10;99.90;;;;;;4902423;29;20060;-70
2022/06/10 00:42:42;;;;;;;0.00;0.00;;;14.10;99.90;;;;;;4894314;29;20535;-70
2022/06/10 00:45:47;;;;;;;0.40;0.40;;;14.10;99.90;;;;;;4896463;29;20140;-70
2022/06/10 00:48:16;;;;;;;0.93;0.70;;;14.10;99.90;;;;;;4895639;29;20127;-69
2022/06/10 00:50:41;;;;;;;0.10;0.10;;;14.10;99.90;;;;;;4906088;29;20100;-70
2022/06/10 00:53:12;;;;;;;0.13;0.13;;;14.10;99.90;;;;;;4915231;29;20052;-70
2022/06/10 00:55:38;;;;;;;0.28;0.28;;;14.00;99.90;;;;;;4914662;29;20500;-70
2022/06/10 00:58:37;;;;;;;0.28;0.28;;;14.00;99.90;;;;;;4904063;29;20048;-70
2022/06/10 01:01:03;;;;;;;0.17;0.17;;;14.10;99.90;;;;;;4887268;29;20561;-70
2022/06/10 01:03:30;;;;;;;0.10;0.10;;;14.10;99.90;;;;;;4915270;29;20044;-70
2022/06/10 01:05:56;;;;;;;0.20;0.20;;;14.10;99.90;;;;;;4912980;29;20099;-70
2022/06/10 01:08:23;;;;;;;5.93;2.03;;;14.00;99.90;;;;;;4910360;29;20048;-70
2022/06/10 01:11:10;;;;;;;0.43;0.20;;;14.00;99.90;;;;;;4915334;29;20067;-70
2022/06/10 01:13:48;;;;;;;0.00;0.00;;;13.90;99.90;;;;;;4898734;29;20076;-70
2022/06/10 01:16:30;;;;;;;0.28;0.28;;;14.00;99.90;;;;;;4895327;29;20053;-70
2022/06/10 01:19:05;;;;;;;0.20;0.20;;;13.90;99.90;;;;;;4894916;29;20147;-70
2022/06/10 01:21:51;;;;;;;0.30;0.30;;;13.90;99.90;;;;;;4896263;29;20131;-70
2022/06/10 01:24:27;;;;;;;0.05;0.05;;;13.80;99.90;;;;;;4913122;29;20071;-70
2022/06/10 01:30:11;;;;;;;0.00;0.00;;;13.70;99.90;;;;;;4893708;29;20052;-70
2022/06/10 01:32:58;;;;;;;0.00;0.00;;;13.80;99.90;;;;;;4897268;29;20059;-70
2022/06/10 01:35:29;;;;;;;0.10;0.10;;;13.80;99.90;;;;;;4914608;29;20051;-70
2022/06/10 01:38:09;;;;;;;0.03;0.03;;;13.70;99.90;;;;;;4914265;29;20067;-70
2022/06/10 01:40:51;;;;;;;0.20;0.20;;;13.70;99.90;;;;;;4901521;29;20104;-70
2022/06/10 01:43:37;;;;;;;0.30;0.30;;;13.70;99.90;;;;;;4895045;29;20045;-70
2022/06/10 01:46:12;;;;;;;0.00;0.00;;;13.70;99.90;;;;;;4911884;29;20400;-70
2022/06/10 01:48:43;;;;;;;0.00;0.00;;;13.70;99.90;;;;;;4914377;29;20514;-70
2022/06/10 01:51:36;;;;;;;0.00;0.00;;;13.80;99.90;;;;;;4912198;29;20140;-70
2022/06/10 01:54:13;;;;;;;0.30;0.30;;;13.70;99.90;;;;;;4894255;29;20052;-70
2022/06/10 01:56:44;;;;;;;0.00;0.00;;;13.80;99.90;;;;;;4894345;29;20400;-70
2022/06/10 01:59:26;;;;;;;0.10;0.10;;;13.80;99.90;;;;;;4894662;29;20045;-70
2022/06/10 02:02:03;;;;;;;0.08;0.08;;;13.90;99.90;;;;;;4895727;29;20052;-70
2022/06/10 02:04:36;;;;;;;0.10;0.10;;;13.90;99.90;;;;;;4901393;29;20424;-70
2022/06/10 02:07:38;;;;;;;0.05;0.05;;;14.00;99.90;;;;;;4912607;29;20567;-69
2022/06/10 02:10:28;;;;;;;1.95;0.90;;;13.90;99.90;;;;;;4914005;29;20380;-70
2022/06/10 02:13:04;;;;;;;0.17;0.17;;;14.00;99.90;;;;;;4913289;29;20061;-70
2022/06/10 02:15:34;;;;;;;0.10;0.10;;;13.90;99.90;;;;;;4914305;29;20055;-70
2022/06/10 02:18:15;;;;;;;0.00;0.00;;;14.00;99.90;;;;;;4894152;29;20041;-70
2022/06/10 02:20:45;;;;;;;3.38;1.42;;;14.00;99.90;;;;;;4896203;29;20063;-70
2022/06/10 02:23:13;;;;;;;0.10;0.10;;;14.00;99.90;;;;;;4913740;29;20096;-70
2022/06/10 02:25:53;;;;;;;0.80;0.57;;;14.00;99.90;;;;;;4904534;29;20036;-70
2022/06/10 02:28:25;;;;;;;0.10;0.10;;;14.00;99.90;;;;;;4904601;29;20147;-70
2022/06/10 02:31:27;;;;;;;0.05;0.05;;;14.10;99.90;;;;;;4912805;29;20097;-70
2022/06/10 02:33:54;;;;;;;0.10;0.10;;;14.00;99.90;;;;;;4896124;29;20063;-70
2022/06/10 02:36:23;;;;;;;0.10;0.10;;;14.00;99.90;;;;;;4894854;29;20056;-70
2022/06/10 02:39:08;;;;;;;1.02;0.80;;;14.00;99.90;;;;;;4898108;29;20048;-70
2022/06/10 02:41:41;;;;;;;1.30;0.57;;;14.00;99.90;;;;;;4899342;29;20107;-69
2022/06/10 02:44:27;;;;;;;;;;;14.00;99.90;;;;;;4894189;29;20070;-70
2022/06/10 02:47:22;;;;;;;0.20;0.20;;;14.00;99.90;;;;;;4894137;29;20384;-70
2022/06/10 02:49:47;;;;;;;0.20;0.20;;;14.10;99.90;;;;;;4897241;29;20036;-70
2022/06/10 02:52:16;;;;;;;0.10;0.10;;;14.00;99.90;;;;;;4901456;29;20055;-70
2022/06/10 02:54:43;;;;;;;0.17;0.17;;;14.00;99.90;;;;;;4900478;29;20051;-70
2022/06/10 02:57:21;;;;;;;1.25;1.20;;;14.00;99.90;;;;;;4913403;29;20044;-70
2022/06/10 03:03:09;;;;;;;0.10;0.10;;;13.90;99.90;;;;;;4913283;29;20056;-70
2022/06/10 03:05:53;;;;;;;1.42;1.33;;;13.90;99.90;;;;;;4917066;29;20088;-70
2022/06/10 03:08:40;;;;;;;9.30;2.60;;;13.80;99.90;;;;;;4909211;29;20519;-70
2022/06/10 03:11:25;;;;;;;0.10;0.10;;;13.90;99.90;;;;;;4896974;29;20045;-70
2022/06/10 03:14:15;;;;;;;0.15;0.15;;;13.80;99.90;;;;;;4915452;29;20490;-70
2022/06/10 03:16:41;;;;;;;0.05;0.05;;;13.90;99.90;;;;;;4912978;29;20052;-70
2022/06/10 03:19:13;;;;;;;0.05;0.05;;;13.90;99.90;;;;;;4898142;29;20512;-70
2022/06/10 03:21:59;;;;;;;0.00;0.00;;;13.80;99.90;;;;;;4896326;29;20641;-70
2022/06/10 03:24:38;;;;;;;0.15;0.15;;;13.80;99.90;;;;;;4898517;29;20172;-69
2022/06/10 03:27:24;;;;;;;0.20;0.20;;;13.80;99.90;;;;;;4905631;29;20052;-70
2022/06/10 03:29:57;;;;;;;0.30;0.30;;;13.90;99.90;;;;;;4916419;29;20067;-70
2022/06/10 03:32:25;;;;;;;0.10;0.10;;;13.90;99.90;;;;;;4915502;29;20088;-70
2022/06/10 03:34:58;;;;;;;0.05;0.05;;;13.90;99.90;;;;;;4915086;29;20052;-70
2022/06/10 03:37:24;;;;;;;0.25;0.25;;;13.80;99.90;;;;;;4915779;29;20103;-70
2022/06/10 03:39:52;;;;;;;0.30;0.30;;;13.80;99.90;;;;;;4916928;29;20060;-70
2022/06/10 03:42:19;;;;;;;0.00;0.00;;;13.90;99.90;;;;;;4916400;29;20547;-70
2022/06/10 03:44:48;;;;;;;0.10;0.10;;;13.90;99.90;;;;;;4912635;29;20044;-70
2022/06/10 03:47:30;;;;;;;0.00;0.00;;;13.80;99.90;;;;;;4916556;29;20123;-70
2022/06/10 03:49:58;;;;;;;0.10;0.10;;;13.80;99.90;;;;;;4914569;29;20560;-70
2022/06/10 03:52:27;;;;;;;0.17;0.17;;;13.90;99.90;;;;;;4914444;29;20300;-70
2022/06/10 03:54:53;;;;;;;0.08;0.08;;;13.90;99.90;;;;;;4916827;29;20076;-70
2022/06/10 03:57:18;;;;;;;0.13;0.13;;;13.90;99.90;;;;;;4915524;29;20499;-70
2022/06/10 03:59:45;;;;;;;0.10;0.10;;;14.00;99.90;;;;;;4909770;29;20392;-70
2022/06/10 04:02:11;;;;;;;0.10;0.10;;;14.00;99.90;;;;;;4899259;29;20060;-70
2022/06/10 04:04:38;;;;;;;0.10;0.10;;;14.10;99.90;;;;;;4896676;29;20445;-70
2022/06/10 04:07:05;;;;;;;0.10;0.10;;;14.10;99.90;;;;;;4894576;29;20052;-70
2022/06/10 04:09:31;;;;;;;0.10;0.10;;;14.10;99.90;;;;;;4897483;29;20096;-70
2022/06/10 04:11:57;;;;;;;0.10;0.10;;;14.10;99.90;;;;;;4896998;29;20048;-70
2022/06/10 04:14:23;;;;;;;0.10;0.10;;;14.20;99.90;;;;;;4909879;29;20048;-70
2022/06/10 04:16:49;;;;;;;0.95;0.68;;;14.10;99.90;;;;;;4896915;29;20040;-70
2022/06/10 04:19:14;;;;;;;0.20;0.20;;;14.20;99.90;;;;;;4895394;29;20056;-70
2022/06/10 04:21:40;;;;;;;0.00;0.00;;;14.20;99.90;;;;;;4895545;29;20044;-70
2022/06/10 04:24:06;;;;;;;0.10;0.10;;;14.20;99.90;;;;;;4914435;29;20500;-70
2022/06/10 04:26:32;;;;;;;0.10;0.10;;;14.30;99.90;;;;;;4913449;29;20129;-70
2022/06/10 04:28:58;;;;;;;0.10;0.10;;;14.20;99.90;;;;;;4915088;29;20587;-70
2022/06/10 04:31:24;;;;;;;0.10;0.10;;;14.30;99.90;;;;;;4915669;29;20186;-71
2022/06/10 04:33:49;;;;;;;0.00;0.00;;;14.30;99.90;;;;;;4915556;29;20052;-70
2022/06/10 04:36:17;;;;;;;0.17;0.17;;;14.30;99.90;;;;;;4914419;29;20107;-70
2022/06/10 04:38:44;;;;;;;0.10;0.10;;;14.30;99.90;;;;;;4897172;29;20045;-70
2022/06/10 04:41:11;;;;;;;4.47;0.93;;;14.30;99.90;;;;;;4914548;29;20064;-70
2022/06/10 04:43:37;;;;;;;0.15;0.15;;;14.30;99.90;;;;;;4913862;29;20369;-70
2022/06/10 04:46:06;;;;;;;0.10;0.10;;;14.30;99.90;;;;;;4914753;29;20048;-70
2022/06/10 04:48:32;;;;;;;0.10;0.10;;;14.30;99.90;;;;;;4915600;29;20044;-70
2022/06/10 04:50:58;;;;;;;0.10;0.10;;;14.30;99.90;;;;;;4915624;29;20051;-70
2022/06/10 04:53:24;;;;;;;0.08;0.08;;;14.40;99.90;;;;;;4910010;29;20135;-70
2022/06/10 04:55:50;;;;;;;0.00;0.00;;;14.40;99.90;;;;;;4915729;29;20043;-71
2022/06/10 04:58:15;;;;;;;1.65;0.50;;;14.40;99.90;;;;;;4915365;29;20044;-71
2022/06/10 05:00:47;;;;;;;0.10;0.10;;;14.40;99.90;;;;;;4912759;29;20499;-70
2022/06/10 05:03:15;;;;;;;0.05;0.05;;;14.50;99.90;;;;;;4915153;29;20055;-71
2022/06/10 05:05:41;;;;;;;1.90;0.47;;;14.50;99.90;;;;;;4915150;29;20496;-71
2022/06/10 05:08:11;;;;;;;0.00;0.00;;;14.50;99.90;;;;;;4896636;29;20064;-71
2022/06/10 05:10:37;;;;;;;0.20;0.20;;;14.60;99.90;;;;;;4895031;29;20127;-71
2022/06/10 05:13:03;;;;;;;0.00;0.00;;;14.70;99.90;;;;;;4911225;29;20521;-71
2022/06/10 05:15:29;;;;;;;0.73;0.73;;;14.70;99.90;;;;;;4914382;29;20036;-70
2022/06/10 05:17:56;;;;;;;0.00;0.00;;;14.70;99.90;;;;;;4915324;29;20060;-70
2022/06/10 05:20:27;;;;;;;0.10;0.10;;;14.80;99.90;;;;;;4910311;29;20059;-71
2022/06/10 05:22:53;;;;;;;0.13;0.13;;;14.90;99.90;;;;;;4912627;29;20055;-70
2022/06/10 05:25:19;;;;;;;0.10;0.10;;;14.90;99.90;;;;;;4914473;29;20127;-70
2022/06/10 05:27:45;;;;;;;0.10;0.10;;;14.90;99.90;;;;;;4914767;29;20067;-70
2022/06/10 05:30:16;;;;;;;0.00;0.00;;;14.90;99.90;;;;;;4901897;29;20072;-70
2022/06/10 05:32:42;;;;;;;0.10;0.10;;;14.90;99.90;;;;;;4894538;29;20616;-70
2022/06/10 05:35:08;;;;;;;2.55;2.35;;;14.90;99.90;;;;;;4895235;29;20049;-70
2022/06/10 05:37:33;;;;;;;0.10;0.10;;;15.00;99.90;;;;;;4896270;29;20058;-71
2022/06/10 05:40:00;;;;;;;0.00;0.00;;;15.00;99.90;;;;;;4908333;29;20139;-71
2022/06/10 05:42:25;;;;;;;12.35;1.20;;;15.00;99.90;;;;;;4895237;29;20123;-71
2022/06/10 05:44:52;;;;;;;1.00;0.90;;;14.90;99.90;;;;;;4894156;29;20131;-70
2022/06/10 05:47:27;;;;;;;0.10;0.10;;;15.00;99.90;;;;;;4895434;29;20048;-70
2022/06/10 05:49:55;;;;;;;0.17;0.17;;;15.00;99.90;;;;;;4894139;29;20056;-70
2022/06/10 05:52:24;;;;;;;0.05;0.05;;;15.00;99.90;;;;;;4898694;29;20056;-71
2022/06/10 05:54:51;;;;;;;0.10;0.10;;;15.10;99.90;;;;;;4914651;29;20100;-70
2022/06/10 05:57:17;;;;;;;0.03;0.03;;;15.10;99.90;;;;;;4903383;29;20087;-71
2022/06/10 05:59:44;;;;;;;0.40;0.40;;;15.10;99.90;;;;;;4895327;29;20044;-71
2022/06/10 06:02:11;;;;;;;0.13;0.13;;;15.10;99.90;;;;;;4897335;29;20063;-71
2022/06/10 06:04:37;;;;;;;0.10;0.10;;;15.10;99.90;;;;;;4893337;29;20047;-70
2022/06/10 06:07:03;;;;;;;0.10;0.10;;;15.10;99.90;;;;;;4894466;29;20420;-70
2022/06/10 06:09:29;;;;;;;0.10;0.10;;;15.10;99.90;;;;;;4893690;29;20139;-71
2022/06/10 06:11:56;;;;;;;0.10;0.10;;;15.10;99.90;;;;;;4894932;29;20136;-70
2022/06/10 06:14:25;;;;;;;0.25;0.25;;;15.20;99.90;;;;;;4901105;29;20040;-70
2022/06/10 06:16:57;;;;;;;0.10;0.10;;;15.20;99.90;;;;;;4912871;29;20055;-71
2022/06/10 06:19:24;;;;;;;0.00;0.00;;;15.30;99.90;;;;;;4913499;29;20451;-71
2022/06/10 06:21:50;;;;;;;0.00;0.00;;;15.30;99.90;;;;;;4912980;29;20534;-71
2022/06/10 06:24:16;;;;;;;0.20;0.20;;;15.30;99.90;;;;;;4909478;29;20084;-71
2022/06/10 06:26:41;;;;;;;0.10;0.10;;;15.40;99.90;;;;;;4913775;29;20127;-71
2022/06/10 06:29:07;;;;;;;0.20;0.20;;;15.40;99.90;;;;;;4910371;29;20044;-71
2022/06/10 06:31:33;;;;;;;10.18;1.10;;;15.40;99.90;;;;;;4912306;29;20056;-70
2022/06/10 06:33:59;;;;;;;0.10;0.10;;;15.50;99.90;;;;;;4913933;29;20076;-71
2022/06/10 06:36:27;;;;;;;0.10;0.10;;;15.50;99.90;;;;;;4898851;29;20049;-71
2022/06/10 06:38:53;;;;;;;0.10;0.10;;;15.60;99.90;;;;;;4898304;29;20044;-71
2022/06/10 06:41:19;;;;;;;0.20;0.20;;;15.60;99.90;;;;;;4913816;29;20067;-71
2022/06/10 06:43:45;;;;;;;0.10;0.10;;;15.70;99.90;;;;;;4916559;29;20052;-71
2022/06/10 06:46:17;;;;;;;0.10;0.10;;;15.80;99.90;;;;;;4916834;29;20475;-71
2022/06/10 06:48:43;;;;;;;5.93;0.75;;;15.80;99.90;;;;;;4917906;29;20052;-70
2022/06/10 06:51:10;;;;;;;0.35;0.35;;;15.80;99.90;;;;;;4897659;29;20143;-71
2022/06/10 06:53:36;;;;;;;0.10;0.10;;;15.90;99.90;;;;;;4898245;29;20096;-71
2022/06/10 06:56:03;;;;;;;0.00;0.00;;;15.90;99.90;;;;;;4908800;29;20052;-71
2022/06/10 06:58:29;;;;;;;0.10;0.10;;;15.90;99.90;;;;;;4917468;29;20052;-70
2022/06/10 07:00:55;;;;;;;2.65;2.30;;;15.90;99.90;;;;;;4907923;29;20055;-70
2022/06/10 07:03:21;;;;;;;0.10;0.10;;;15.90;99.90;;;;;;4898247;29;20127;-71
2022/06/10 07:05:47;;;;;;;0.08;0.08;;;15.90;99.90;;;;;;4897879;29;20200;-70
2022/06/10 07:08:13;;;;;;;0.10;0.10;;;15.90;99.90;;;;;;4897834;29;20068;-71
2022/06/10 07:10:38;;;;;;;0.13;0.13;;;15.90;99.90;;;;;;4905680;29;20051;-70
2022/06/10 07:13:05;;;;;;;0.13;0.13;;;15.90;99.90;;;;;;4917209;29;20416;-70
2022/06/10 07:15:30;;;;;;;0.22;0.22;;;15.80;99.90;;;;;;4899855;29;20127;-71
2022/06/10 07:17:57;;;;;;;6.53;2.92;;;15.80;99.90;;;;;;4898537;29;20132;-71
2022/06/10 07:20:29;;;;;;;0.10;0.10;;;15.80;99.90;;;;;;4907211;29;20060;-71
2022/06/10 07:22:54;;;;;;;0.10;0.10;;;15.90;99.90;;;;;;4917199;29;20416;-71
2022/06/10 07:25:21;;;;;;;4.70;1.60;;;15.90;99.90;;;;;;4915536;29;20048;-70
2022/06/10 07:27:47;;;;;;;0.28;0.17;;;16.00;99.90;;;;;;4914724;29;20055;-71
2022/06/10 07:30:16;;;;;;;1.65;1.55;;;16.00;99.90;;;;;;4915718;29;20547;-71
2022/06/10 07:32:43;;;;;;;0.10;0.10;;;16.00;99.90;;;;;;4917136;29;20052;-71
2022/06/10 07:35:10;;;;;;;14.05;2.10;;;16.00;99.90;;;;;;4914415;29;20044;-71
2022/06/10 07:37:35;;;;;;;0.10;0.10;;;16.00;99.90;;;;;;4915822;29;20060;-70
2022/06/10 07:40:02;;;;;;;0.00;0.00;;;15.90;99.90;;;;;;4903032;29;20064;-70
2022/06/10 07:42:27;;;;;;;0.50;0.32;;;15.90;99.90;;;;;;4896385;29;20063;-70
2022/06/10 07:44:54;;;;;;;0.35;0.35;;;15.80;99.90;;;;;;4897101;29;20040;-70
2022/06/10 07:47:20;;;;;;;0.47;0.47;;;15.80;99.90;;;;;;4899562;29;20059;-70
2022/06/10 07:49:46;;;;;;;0.10;0.10;;;15.80;99.90;;;;;;4897286;29;20052;-70
2022/06/10 07:52:12;;;;;;;0.20;0.20;;;15.80;99.90;;;;;;4896800;29;20051;-70
2022/06/10 07:54:38;;;;;;;0.25;0.25;;;15.80;99.90;;;;;;4909413;29;20086;-70
2022/06/10 07:57:06;;;;;;;0.10;0.10;;;15.80;99.90;;;;;;4915782;29;20496;-70
2022/06/10 07:59:32;;;;;;;0.28;0.28;;;15.80;99.90;;;;;;4916613;29;20504;-70
2022/06/10 08:01:58;;;;;;;0.38;0.38;;;15.80;99.90;;;;;;4911453;29;20048;-70
2022/06/10 08:04:24;;;;;;;0.32;0.32;;;15.80;99.90;;;;;;4909340;29;20428;-70
2022/06/10 08:06:50;;;;;;;0.10;0.10;;;15.80;99.90;;;;;;4912243;29;20048;-70
2022/06/10 08:09:20;;;;;;;1.20;0.75;;;15.90;99.90;;;;;;4897678;29;20080;-69
2022/06/10 08:11:47;;;;;;;0.28;0.28;;;15.90;99.90;;;;;;4896466;29;20061;-69
2022/06/10 08:14:14;;;;;;;0.05;0.05;;;16.00;99.90;;;;;;4912912;29;20045;-70
2022/06/10 08:16:40;;;;;;;1.02;0.93;;;16.00;99.90;;;;;;4897248;29;20056;-70
2022/06/10 08:19:05;;;;;;;0.20;0.20;;;16.10;99.90;;;;;;4908224;29;20048;-70
2022/06/10 08:24:17;;;;;;;0.35;0.35;;;16.30;99.90;;;;;;4913443;29;20052;-70
2022/06/10 08:26:43;;;;;;;0.22;0.22;;;16.40;99.90;;;;;;4914715;29;20060;-70
2022/06/10 08:29:09;;;;;;;0.13;0.13;;;16.40;99.90;;;;;;4910877;29;20075;-70
2022/06/10 08:31:35;;;;;;;0.38;0.25;;;16.40;99.90;;;;;;4895753;29;20155;-69
2022/06/10 08:34:02;;;;;;;0.73;0.57;;;16.40;99.90;;;;;;4895646;29;20079;-70
2022/06/10 08:36:29;;;;;;;0.10;0.10;;;16.40;99.90;;;;;;4895732;29;20115;-70
2022/06/10 08:38:54;;;;;;;0.30;0.30;;;16.40;99.90;;;;;;4901405;29;20107;-70
2022/06/10 08:41:35;;;;;;;0.15;0.15;;;16.40;99.90;;;;;;4896624;29;20052;-70
2022/06/10 08:44:25;;;;;;;0.13;0.13;;;16.40;99.90;;;;;;4899066;29;20044;-70
2022/06/10 08:47:21;;;;;;;1.17;0.73;;;16.40;99.90;;;;;;4907467;29;20059;-69
2022/06/10 08:50:24;;;;;;;0.20;0.20;;;16.50;99.90;;;;;;4911952;29;20063;-70
2022/06/10 08:53:01;;;;;;;0.73;0.73;;;16.60;99.90;;;;;;4913856;29;20056;-70
2022/06/10 08:55:54;;;;;;;0.20;0.20;;;16.60;99.90;;;;;;4915587;29;20135;-70
2022/06/10 08:58:33;;;;;;;0.47;0.47;;;16.70;99.90;;;;;;4914664;29;20055;-71
2022/06/10 09:01:04;;;;;;;0.20;0.20;;;16.70;99.90;;;;;;4913562;29;20099;-70
2022/06/10 09:03:34;;;;;;;3.42;1.55;;;16.70;99.90;;;;;;4913336;29;20500;-70
2022/06/10 09:06:05;;;;;;;0.20;0.20;;;16.70;99.90;;;;;;4911232;29;20138;-70
2022/06/10 09:08:47;;;;;;;0.15;0.15;;;16.70;99.90;;;;;;4915154;29;20445;-70
2022/06/10 09:11:38;;;;;;;0.28;0.28;;;16.70;99.90;;;;;;4912134;29;20056;-70
2022/06/10 09:14:17;;;;;;;0.20;0.20;;;16.80;99.90;;;;;;4900464;29;20055;-71
2022/06/10 09:16:57;;;;;;;0.00;0.00;;;16.90;99.90;;;;;;4915244;29;20411;-70
2022/06/10 09:19:44;;;;;;;1.77;0.80;;;16.90;99.90;;;;;;4911273;29;20051;-70
2022/06/10 09:22:39;;;;;;;0.10;0.10;;;17.20;99.90;;;;;;4913982;29;20107;-69
2022/06/10 09:25:54;;;;;;;0.30;0.30;;;17.30;99.90;;;;;;4906935;29;20049;-70
2022/06/10 09:28:20;;;;;;;2.33;1.10;;;17.30;99.90;;;;;;4907249;29;20052;-71
2022/06/10 09:30:50;;;;;;;0.70;0.70;;;17.40;99.90;;;;;;4911115;29;20064;-71
2022/06/10 09:33:37;;;;;;;0.20;0.20;;;17.50;99.90;;;;;;4913405;29;20067;-70
2022/06/10 09:36:17;;;;;;;0.17;0.17;;;17.60;99.90;;;;;;4914137;29;20098;-70
2022/06/10 09:38:55;;;;;;;2.33;2.22;;;17.60;99.90;;;;;;4909644;29;20449;-70
2022/06/10 09:41:45;;;;;;;0.20;0.20;;;17.70;99.90;;;;;;4893554;29;20056;-70
2022/06/10 09:44:36;;;;;;;0.20;0.20;;;17.60;99.90;;;;;;4896128;29;20064;-70
2022/06/10 09:47:45;;;;;;;0.52;0.52;;;17.60;99.90;;;;;;4900179;29;20143;-71
2022/06/10 09:50:31;;;;;;;0.20;0.20;;;17.50;99.90;;;;;;4913762;29;20040;-71
2022/06/10 09:53:16;;;;;;;0.25;0.25;;;17.50;99.90;;;;;;4914876;29;20040;-71
2022/06/10 09:56:01;;;;;;;1.23;1.13;;;17.40;99.90;;;;;;4912771;29;20141;-70
2022/06/10 09:58:47;;;;;;;4.90;1.48;;;17.30;99.90;;;;;;4914827;29;20050;-70
2022/06/10 10:01:44;;;;;;;0.63;0.63;;;17.30;99.90;;;;;;4910578;29;20052;-71
2022/06/10 10:04:45;;;;;;;0.70;0.70;;;17.30;99.90;;;;;;4913977;29;20048;-71
2022/06/10 10:07:24;;;;;;;0.22;0.22;;;17.20;99.90;;;;;;4911215;29;20055;-71
2022/06/10 10:10:19;;;;;;;0.05;0.05;;;17.20;99.90;;;;;;4912636;29;20066;-70
2022/06/10 10:13:09;;;;;;;0.10;0.10;;;17.20;99.90;;;;;;4905492;29;20526;-70
2022/06/10 10:15:52;;;;;;;1.55;0.63;;;17.20;99.90;;;;;;4896524;29;20125;-70
2022/06/10 10:18:21;;;;;;;;;;;17.20;99.90;;;;;;4893851;29;20127;-71
2022/06/10 10:21:13;;;;;;;3.40;1.13;;;17.20;99.90;;;;;;4893343;29;19987;-71
2022/06/10 10:23:46;;;;;;;0.15;0.15;;;17.30;99.90;;;;;;4897076;29;20247;-70
2022/06/10 10:26:24;;;;;;;1.38;1.15;;;17.30;99.90;;;;;;4904970;29;20502;-70
2022/06/10 10:28:59;;;;;;;0.25;0.25;;;17.30;99.90;;;;;;4908959;29;20527;-70
2022/06/10 10:31:34;;;;;;;1.00;1.00;;;17.30;99.90;;;;;;4913213;29;20092;-71
2022/06/10 10:34:03;;;;;;;0.10;0.10;;;17.30;99.90;;;;;;4911994;29;20131;-72
2022/06/10 10:36:32;;;;;;;0.20;0.20;;;17.50;99.90;;;;;;4913481;29;20079;-71
2022/06/10 10:39:12;;;;;;;11.52;1.75;;;17.50;99.90;;;;;;4912334;29;20055;-71
2022/06/10 10:41:44;;;;;;;7.68;1.00;;;17.60;99.90;;;;;;4911770;29;20048;-71
2022/06/10 10:44:32;;;;;;;12.30;2.17;;;17.60;99.90;;;;;;4913002;29;20044;-71
2022/06/10 10:47:09;;;;;;;0.10;0.10;;;17.90;99.90;;;;;;4912911;29;20060;-71
2022/06/10 10:49:41;;;;;;;1.98;1.80;;;18.00;99.90;;;;;;4910596;29;20196;-71
2022/06/10 10:52:15;;;;;;;0.10;0.10;;;18.10;99.90;;;;;;4912909;29;20476;-71
2022/06/10 10:54:44;;;;;;;2.55;0.65;;;18.20;99.90;;;;;;4912972;29;20054;-71
2022/06/10 10:57:21;;;;;;;0.25;0.25;;;18.20;99.90;;;;;;4908694;29;20185;-71
2022/06/10 10:59:55;;;;;;;1.08;1.02;;;18.10;99.90;;;;;;4909692;29;20426;-70
2022/06/10 11:02:48;;;;;;;0.52;0.35;;;18.10;99.90;;;;;;4913873;29;20052;-71
2022/06/10 11:05:36;;;;;;;1.80;0.73;;;18.10;99.90;;;;;;4905114;29;20040;-71
2022/06/10 11:08:17;;;;;;;0.20;0.20;;;18.20;99.90;;;;;;4908075;29;20111;-70
2022/06/10 11:10:51;;;;;;;1.98;1.33;;;18.10;99.90;;;;;;4913720;29;20440;-71
2022/06/10 11:13:44;;;;;;;0.00;0.00;;;18.10;99.90;;;;;;4904358;29;20561;-71
2022/06/10 11:16:27;;;;;;;0.10;0.10;;;18.20;99.90;;;;;;4872720;29;20060;-71
2022/06/10 11:19:12;;;;;;;;;;;18.30;99.90;;;;;;4894534;29;20497;-71
2022/06/10 11:21:46;;;;;;;0.20;0.17;;;18.30;99.90;;;;;;4903416;29;19924;-71
2022/06/10 11:24:16;;;;;;;0.10;0.10;;;18.40;99.90;;;;;;4894791;29;20044;-71
2022/06/10 11:26:53;;;;;;;1.05;1.05;;;18.60;99.90;;;;;;4896005;29;20511;-71
2022/06/10 11:29:19;;;;;;;0.10;0.10;;;18.80;99.90;;;;;;4904983;29;20048;-71
2022/06/10 11:32:00;;;;;;;0.45;0.35;;;19.00;99.90;;;;;;4916864;29;20523;-71
2022/06/10 11:34:33;;;;;;;9.15;1.08;;;19.10;99.90;;;;;;4916488;29;20040;-71
2022/06/10 11:36:59;;;;;;;0.00;0.00;;;19.00;99.90;;;;;;4913492;29;20161;-71
2022/06/10 11:39:33;;;;;;;0.65;0.57;;;18.80;99.90;;;;;;4911368;29;20124;-71
2022/06/10 11:42:07;;;;;;;0.10;0.10;;;18.70;99.90;;;;;;4897281;29;20056;-71
2022/06/10 11:44:38;;;;;;;1.90;1.75;;;18.50;99.90;;;;;;4904072;29;20096;-71
2022/06/10 11:47:22;;;;;;;0.10;0.10;;;18.40;99.90;;;;;;4916416;29;20512;-71
2022/06/10 11:49:57;;;;;;;0.00;0.00;;;18.30;99.90;;;;;;4912470;29;20044;-71
2022/06/10 11:52:32;;;;;;;0.10;0.10;;;18.20;99.90;;;;;;4916275;29;20051;-71
2022/06/10 11:55:19;;;;;;;0.73;0.65;;;18.20;99.90;;;;;;4908796;29;20049;-71
2022/06/10 12:01:08;;;;;;;0.17;0.17;;;18.30;99.90;;;;;;4914403;29;20290;-71
2022/06/10 12:04:00;;;;;;;0.10;0.10;;;18.90;99.90;;;;;;4915502;29;20059;-71
2022/06/10 12:06:33;;;;;;;0.10;0.10;;;19.30;99.90;;;;;;4900201;29;20056;-71
2022/06/10 12:09:17;;;;;;;0.10;0.10;;;20.20;99.90;;;;;;4896540;29;20128;-71
2022/06/10 12:11:52;;;;;;;0.85;0.80;;;20.10;99.90;;;;;;4897642;29;20109;-71
2022/06/10 12:14:23;;;;;;;3.70;0.75;;;19.90;99.90;;;;;;4901335;29;20063;-71
2022/06/10 12:16:55;;;;;;;3.53;1.45;;;19.70;99.90;;;;;;4915611;29;20492;-71
2022/06/10 12:19:36;;;;;;;0.00;0.00;;;19.50;99.90;;;;;;4910791;29;20080;-71
2022/06/10 12:22:02;;;;;;;0.40;0.40;;;19.40;99.90;;;;;;4913436;29;20135;-71
2022/06/10 12:24:27;;;;;;;0.22;0.22;;;19.30;99.90;;;;;;4913823;29;20138;-71
2022/06/10 12:27:00;;;;;;;0.00;0.00;;;19.30;99.90;;;;;;4912871;29;20040;-71
2022/06/10 12:29:54;;;;;;;0.00;0.00;;;19.30;99.90;;;;;;4915964;29;20127;-71
2022/06/10 12:32:30;;;;;;;;;;;19.40;99.90;;;;;;4913722;29;20060;-71
2022/06/10 12:35:10;;;;;;;0.40;0.08;;;19.50;99.90;;;;;;4915061;29;20284;-70
2022/06/10 12:37:54;;;;;;;0.30;0.28;;;19.60;99.90;;;;;;4913081;29;20104;-71
2022/06/10 12:40:28;;;;;;;0.30;0.28;;;19.60;99.90;;;;;;4911826;29;20048;-71
2022/06/10 12:43:05;;;;;;;0.00;0.00;;;19.60;99.90;;;;;;4913911;29;20100;-71
2022/06/10 12:45:41;;;;;;;0.00;0.00;;;19.60;99.90;;;;;;4915217;29;20139;-71
2022/06/10 12:48:17;;;;;;;0.50;0.50;;;19.60;99.90;;;;;;4908564;29;20044;-71
2022/06/10 12:51:10;;;;;;;0.00;0.00;;;19.70;99.90;;;;;;4912250;29;20397;-71
2022/06/10 12:53:56;;;;;;;0.10;0.10;;;19.80;99.90;;;;;;4915357;29;20544;-70
2022/06/10 12:56:31;;;;;;;0.20;0.20;;;19.80;99.90;;;;;;4915102;29;20492;-71
2022/06/10 12:59:19;;;;;;;16.15;0.95;;;19.70;99.90;;;;;;4911428;29;20048;-71
2022/06/10 13:01:46;;;;;;;0.00;0.00;;;19.70;99.90;;;;;;4915760;29;20155;-71
2022/06/10 13:04:25;;;;;;;0.00;0.00;;;20.10;99.90;;;;;;4915297;29;20051;-69
2022/06/10 13:07:01;;;;;;;0.00;0.00;;;20.60;99.90;;;;;;4895414;29;20576;-70
2022/06/10 13:09:35;;;;;;;0.05;0.05;;;20.90;99.90;;;;;;4896161;29;20095;-69
2022/06/10 13:12:37;;;;;;;0.00;0.00;;;20.80;99.90;;;;;;4896388;29;20049;-69
2022/06/10 13:15:26;;;;;;;0.13;0.13;;;20.80;99.90;;;;;;4891823;29;20104;-70
2022/06/10 13:18:18;;;;;;;0.00;0.00;;;20.80;99.90;;;;;;4896436;29;20080;-70
2022/06/10 13:20:46;;;;;;;0.00;0.00;;;20.70;99.90;;;;;;4914002;29;20060;-71
2022/06/10 13:23:24;;;;;;;0.10;0.10;;;20.60;99.90;;;;;;4910632;29;20040;-71
2022/06/10 13:26:05;;;;;;;0.00;0.00;;;20.70;99.90;;;;;;4913527;29;20378;-71
2022/06/10 13:28:37;;;;;;;0.00;0.00;;;21.50;99.90;;;;;;4912953;29;20048;-70
2022/06/10 13:31:17;;;;;;;0.75;0.75;;;21.50;99.90;;;;;;4896099;29;20599;-71
2022/06/10 13:33:56;;;;;;;1.83;0.88;;;21.20;99.90;;;;;;4895143;29;20515;-71